Dno, Russia
Current Conditions -  °F | °C
As of 5:30 PM on Friday 28 Nov 2014 (Local Time) from ULOO Reporting Station
Haze Haze  
Wind Chill:   Ceiling: 700
Heat Index: 18°   Visibility: 3mi
Dew Point: 16°   Wind: 7mph
Humidity: 93%   Direction: 90°E
Pressure: 30.53"   Gusts: NA
Location:  57.83°N, 29.98°E
Report Text: ULOO 281430Z 09003MPS 5000 BR OVC007 M08/M09 Q1034 19920045NOSIG RMK QFE772
Loading
Personal Weather Stations






























Interactive Weather Map New forecast layout! Learn more

10-Day Weather Forecast

Advertisements
Track Severe Weather on mobile